createdAt,value
2022-09-12T00:00:02.298Z,18.23
2022-09-12T00:05:04.113Z,18.80
2022-09-12T00:10:06.029Z,19.30
2022-09-12T00:15:07.956Z,18.70
2022-09-12T00:20:12.157Z,19.38
2022-09-12T00:25:13.640Z,18.75
2022-09-12T00:30:15.057Z,20.35
2022-09-12T00:35:16.482Z,19.13
2022-09-12T00:40:18.011Z,17.52
2022-09-12T00:45:27.102Z,17.50
2022-09-12T00:50:29.427Z,17.60
2022-09-12T00:55:38.367Z,15.93
2022-09-12T01:00:39.877Z,17.00
2022-09-12T01:05:50.098Z,16.70
2022-09-12T01:10:52.574Z,16.83
2022-09-12T01:15:53.928Z,16.83
2022-09-12T01:21:06.131Z,16.95
2022-09-12T01:26:47.883Z,16.42
2022-09-12T01:32:08.924Z,15.88
2022-09-12T01:37:28.296Z,15.70
2022-09-12T01:42:56.709Z,18.03
2022-09-12T01:48:21.528Z,17.15
2022-09-12T01:53:36.268Z,15.70
2022-09-12T01:58:47.761Z,15.18
2022-09-12T02:03:55.081Z,16.73
2022-09-12T02:09:03.328Z,16.23
2022-09-12T02:14:12.014Z,16.10
2022-09-12T02:19:18.270Z,16.63
2022-09-12T02:24:22.592Z,15.93
2022-09-12T02:29:24.023Z,17.52
2022-09-12T02:34:43.569Z,15.48
2022-09-12T02:39:45.599Z,15.05
2022-09-12T02:44:47.385Z,15.82
2022-09-12T02:49:48.803Z,15.98
2022-09-12T02:54:51.084Z,16.25
2022-09-12T02:59:58.476Z,15.80
2022-09-12T03:05:11.791Z,16.45
2022-09-12T03:10:31.912Z,15.80
2022-09-12T03:20:49.589Z,14.55
2022-09-12T03:26:02.252Z,13.73
2022-09-12T03:31:15.834Z,14.70
2022-09-12T03:36:22.732Z,13.27
2022-09-12T03:41:24.219Z,13.93
2022-09-12T03:46:25.667Z,14.45
2022-09-12T03:51:27.550Z,14.70
2022-09-12T03:56:29.040Z,14.07
2022-09-12T04:01:30.630Z,14.57
2022-09-12T04:06:32.202Z,13.65
2022-09-12T04:11:33.620Z,12.25
2022-09-12T04:16:35.039Z,13.88
2022-09-12T04:21:36.488Z,13.48
2022-09-12T04:26:37.827Z,12.77
2022-09-12T04:31:39.175Z,14.05
2022-09-12T04:36:40.586Z,12.57
2022-09-12T04:41:42.000Z,12.82
2022-09-12T04:46:46.216Z,14.05
2022-09-12T04:51:47.645Z,12.23
2022-09-12T04:56:50.597Z,12.80
2022-09-12T05:01:52.084Z,13.98
2022-09-12T05:06:53.564Z,11.35
2022-09-12T05:12:10.206Z,12.07
2022-09-12T05:17:11.853Z,12.35
2022-09-12T05:22:13.348Z,11.27
2022-09-12T05:27:15.080Z,12.88
2022-09-12T05:32:16.542Z,11.52
2022-09-12T05:37:17.916Z,11.52
2022-09-12T05:42:19.444Z,11.25
2022-09-12T05:47:20.815Z,11.93
2022-09-12T05:52:22.421Z,11.73
2022-09-12T05:57:23.774Z,11.32
2022-09-12T06:02:25.473Z,11.55
2022-09-12T06:07:26.898Z,10.25
2022-09-12T06:12:29.721Z,10.98
2022-09-12T06:17:31.207Z,10.23
2022-09-12T06:22:32.767Z,10.93
2022-09-12T06:27:34.412Z,11.93
2022-09-12T06:32:36.075Z,10.98
2022-09-12T06:37:37.497Z,10.05
2022-09-12T06:42:38.890Z,9.90
2022-09-12T06:47:40.340Z,9.57
2022-09-12T06:52:41.790Z,8.77
2022-09-12T06:57:43.271Z,9.90
2022-09-12T07:02:44.760Z,8.75
2022-09-12T07:07:46.273Z,8.73
2022-09-12T07:12:47.829Z,9.63
2022-09-12T07:17:49.201Z,8.75
2022-09-12T07:22:50.768Z,8.65
2022-09-12T07:27:52.979Z,10.02
2022-09-12T07:32:54.525Z,9.55
2022-09-12T07:37:56.097Z,9.88
2022-09-12T07:50:08.981Z,10.00
2022-09-12T08:06:49.024Z,8.05
2022-09-12T08:17:18.593Z,7.82
2022-09-12T08:22:20.401Z,8.98
2022-09-12T08:27:24.719Z,8.60
2022-09-12T08:32:26.406Z,8.25
2022-09-12T08:37:33.822Z,8.60
2022-09-12T08:43:32.906Z,8.32
2022-09-12T08:48:50.875Z,8.25
2022-09-12T08:54:25.940Z,7.05
2022-09-12T08:59:33.567Z,8.02
2022-09-12T09:05:15.740Z,7.00
2022-09-12T09:10:27.498Z,7.10
2022-09-12T09:20:51.932Z,6.47
2022-09-12T09:37:19.031Z,5.63
2022-09-12T09:43:00.358Z,6.20
